Hlavní strana
METAR-TAF:

METAR-TAF

Letiště :

Kuusamo, Finsko

zeměpisná šířka: 65-58N, zeměpisná délka: 029-11E, výška: 262 m

Aktuální stav počasí

Zpráva byla vytvořena před 29 minutami, v 09:20 UTC
Východojihovýchodní vítr 6 kt
Teplota -2°C
Vlhkost vzduchu 93%
Tlak 1025 hPa
Viditelnost 10 km a více
Zataženo ve výšce 600 ft

METAR: EFKS 180920Z AUTO 11006KT 9999 OVC006 M02/M03 Q1025

Čas: 11:49 (09:49 UTC)

Předpověď počasí

Zpráva byla vytvořena před 1 hodinou a 19 minutami, v 08:30 UTC
Předpověď platná od 18 v 09 UTC do 18 v 14 UTC
Východojihovýchodní vítr 6 kt
Viditelnost 10 km a více
Zataženo ve výšce 700 ft
Dočasný
od 18 v 09 UTC do 18 v 14 UTC
Viditelnost: 4500 m
Oblačno až skoro zataženo ve výšce 300 ft
slabé sněžení

TAF: EFKS 180830Z 1809/1814 12006KT 9999 OVC007 TEMPO 1809/1814 4500 -SN BKN003

Stav a předpovědi počasí z více než 4 000 letišť (zprávy METAR a TAF).

Červené a žluté tečky na mapě představují dostupné meteorologické stanice.

Když kurzor umístíte na tečku, zobrazí se název stanice.

Pak kliknutím zobrazíte stav a předpověď počasí.

Chcete-li změnit mapu, kliknutím na zelené tlačítko se znaménkem +mapu přiblížíte, kliknutím na zelené tlačítko se znaménkem – mapu oddálíte a kliknutím na zelené šipky přejdete na sousední mapy.


METAR-TAF: